KTLH/TLH METAR and TAF weather

Enter ICAO airport designator
Station Type Date Time Source
KTLH METAR 2022/01/26 20:53 UTC NOAA

KTLH 262053Z 01007KT 10SM SCT080 BKN110 BKN180 17/06 A3012 RMK AO2 SLP197 T01720061 55012


Station Type Date Time Source
KTLH Decoded METAR 2022/01/26 20:53 UTC NOAA

TALLAHASSEE REGIONAL AIRPORT , FL, United States (KTLH) 30-24N 84-21W 16M
Jan 26, 2022 - 03:53 PM EST / 2022.01.26 2053 UTC
Wind: from the N (010 degrees) at 8 MPH (7 KT):0
Visibility: 10 mile(s):0
Sky conditions: mostly cloudy
Temperature: 63.0 F (17.2 C)
Dew Point: 43.0 F (6.1 C)
Relative Humidity: 47%
Pressure (altimeter): 30.12 in. Hg (1019 hPa)
Pressure tendency: 0.04 inches (1.2 hPa) lower than three hours ago
ob: KTLH 262053Z 01007KT 10SM SCT080 BKN110 BKN180 17/06 A3012 RMK AO2 SLP197 T01720061 55012
cycle: 21

Station Type Date Time Source
KTLH TAF 2022/01/26 18:36 UTC NOAA

TAF KTLH 261735Z 2618/2718 02007KT P6SM OVC100
FM270000 02004KT P6SM FEW250
FM270900 04005KT P6SM FEW015 FEW040
FM271200 05008KT P6SM BKN035

Example: see airport list